^^
Your Local Weather - Clay, NY Station Historical Data
Daily Summary for January 2, 2018 Units:  Metric    English   Both
« Previous Day
Next Day »
Daily Weekly Monthly Yearly Custom
  High: Low: Average:
Temperature: -5.7 °C -16.5 °C -10.4 °C
Dew Point: -9.4 °C -18.6 °C -13.9 °C
Humidity: 87% 61% 76%
Wind Speed: 14.5km/h 0km/h 5.3km/h
Wind Gust: 30.6km/h - -
Wind- - WSW
Pressure: 1027.7 hPa 1021.6 hPa -
Precipitation: 0 mm    
Historical Graphs
 
 
Tabular Data for January 2, 2018
Time Temperature Dew Point Pressure Wind Wind Speed Wind Gust Humidity Rainfall Rate (Hourly) solar
00:00 -13.4 °C -15.6 °C 1027 hPa WNW 4.8 km/h 8 km/h 84% 0 mm 0 W/m2
00:04 -13.4 °C -15.4 °C 1027 hPa NW 3.2 km/h 8 km/h 85% 0 mm 0 W/m2
00:10 -13.5 °C -15.5 °C 1027 hPa NW 3.2 km/h 3.2 km/h 85% 0 mm 0 W/m2
00:16 -13.6 °C -15.6 °C 1027 hPa NW 3.2 km/h 8 km/h 85% 0 mm 0 W/m2
00:28 -13.7 °C -15.7 °C 1027 hPa WNW 6.4 km/h 8 km/h 85% 0 mm 0 W/m2
00:34 -13.8 °C -15.8 °C 1027 hPa NW 4.8 km/h 6.4 km/h 85% 0 mm 0 W/m2
00:40 -13.8 °C -15.8 °C 1027 hPa WNW 4.8 km/h 9.7 km/h 85% 0 mm 0 W/m2
00:46 -13.9 °C -16 °C 1027 hPa WNW 4.8 km/h 9.7 km/h 84% 0 mm 0 W/m2
00:52 -14 °C -16.1 °C 1027 hPa WNW 3.2 km/h 4.8 km/h 84% 0 mm 0 W/m2
01:04 -14.1 °C -16.3 °C 1027.3 hPa NW 4.8 km/h 4.8 km/h 83% 0 mm 0 W/m2
01:06 -14.1 °C -16.3 °C 1027.3 hPa NW 4.8 km/h 4.8 km/h 83% 0 mm 0 W/m2
01:18 -14.2 °C -16.4 °C 1027.3 hPa NW 3.2 km/h 3.2 km/h 83% 0 mm 0 W/m2
01:24 -14.2 °C -16.4 °C 1027.3 hPa NW 1.6 km/h 4.8 km/h 83% 0 mm 0 W/m2
01:30 -14.3 °C -16.6 °C 1027.3 hPa NW 3.2 km/h 3.2 km/h 83% 0 mm 0 W/m2
01:36 -14.3 °C -16.6 °C 1027.3 hPa NNW 3.2 km/h 4.8 km/h 83% 0 mm 0 W/m2
01:42 -14.4 °C -16.7 °C 1027.7 hPa NNW 1.6 km/h 4.8 km/h 83% 0 mm 0 W/m2
01:48 -14.4 °C -16.7 °C 1027.7 hPa NW 1.6 km/h 6.4 km/h 83% 0 mm 0 W/m2
01:52 -14.4 °C -16.7 °C 1027.7 hPa NW 1.6 km/h 1.6 km/h 83% 0 mm 0 W/m2
02:04 -14.5 °C -16.8 °C 1027.7 hPa Calm   1.6 km/h 83% 0 mm 0 W/m2
02:10 -14.5 °C -16.6 °C 1027.7 hPa Calm     84% 0 mm 0 W/m2
02:16 -14.5 °C -16.6 °C 1027.7 hPa Calm     84% 0 mm 0 W/m2
02:18 -14.4 °C -16.6 °C 1027.7 hPa Calm     84% 0 mm 0 W/m2
02:24 -14.4 °C -16.6 °C 1027.7 hPa Calm     84% 0 mm 0 W/m2
02:30 -14.4 °C -16.6 °C 1027.7 hPa Calm     84% 0 mm 0 W/m2
02:36 -14.5 °C -16.6 °C 1027.7 hPa Calm     84% 0 mm 0 W/m2
02:42 -14.6 °C -16.7 °C 1027.7 hPa Calm     84% 0 mm 0 W/m2
02:48 -14.7 °C -16.8 °C 1027.7 hPa Calm     84% 0 mm 0 W/m2
02:54 -14.7 °C -16.8 °C 1027.7 hPa Calm     84% 0 mm 0 W/m2
03:00 -14.8 °C -16.9 °C 1027.7 hPa Calm     84% 0 mm 0 W/m2
03:12 -14.9 °C -17.1 °C 1027.7 hPa Calm     84% 0 mm 0 W/m2
03:18 -15.1 °C -17.2 °C 1027.7 hPa Calm     84% 0 mm 0 W/m2
03:24 -15.2 °C -17.3 °C 1027.7 hPa Calm     84% 0 mm 0 W/m2
03:30 -15.1 °C -17.1 °C 1027.7 hPa Calm     85% 0 mm 0 W/m2
03:36 -14.9 °C -16.9 °C 1027.7 hPa Calm     85% 0 mm 0 W/m2
03:42 -14.8 °C -16.7 °C 1027.7 hPa Calm     85% 0 mm 0 W/m2
03:44 -14.7 °C -16.7 °C 1027.7 hPa Calm     85% 0 mm 0 W/m2
03:50 -14.6 °C -16.6 °C 1027.7 hPa Calm   1.6 km/h 85% 0 mm 0 W/m2
03:56 -14.4 °C -16.4 °C 1027.7 hPa Calm   1.6 km/h 85% 0 mm 0 W/m2
04:02 -14.4 °C -16.3 °C 1027.7 hPa Calm     85% 0 mm 0 W/m2
04:08 -14.3 °C -16.4 °C 1027.7 hPa Calm   1.6 km/h 84% 0 mm 0 W/m2
04:14 -14.3 °C -16.4 °C 1027.7 hPa Calm   3.2 km/h 84% 0 mm 0 W/m2
04:20 -14.2 °C -16.3 °C 1027.7 hPa Calm     84% 0 mm 0 W/m2
04:26 -14.2 °C -16.3 °C 1027.7 hPa Calm   1.6 km/h 84% 0 mm 0 W/m2
04:32 -14.2 °C -16.1 °C 1027.7 hPa NW 1.6 km/h 1.6 km/h 85% 0 mm 0 W/m2
04:38 -14.1 °C -16.1 °C 1027.7 hPa Calm   1.6 km/h 85% 0 mm 0 W/m2
04:44 -14.1 °C -16.1 °C 1027.7 hPa Calm   3.2 km/h 85% 0 mm 0 W/m2
04:50 -14.1 °C -16.1 °C 1027.7 hPa Calm     85% 0 mm 0 W/m2
04:56 -14.1 °C -16.1 °C 1027.7 hPa Calm     85% 0 mm 0 W/m2
05:02 -14.1 °C -16.1 °C 1027.3 hPa Calm     85% 0 mm 0 W/m2
05:08 -14.1 °C -16.1 °C 1027.3 hPa Calm     85% 0 mm 0 W/m2
05:14 -14 °C -16 °C 1027.3 hPa Calm     85% 0 mm 0 W/m2
05:20 -14 °C -16 °C 1027.3 hPa Calm     85% 0 mm 0 W/m2
05:32 -13.9 °C -15.9 °C 1027.3 hPa Calm   1.6 km/h 85% 0 mm 0 W/m2
05:44 -13.8 °C -15.8 °C 1027 hPa Calm     85% 0 mm 0 W/m2
05:50 -13.8 °C -15.8 °C 1027 hPa Calm     85% 0 mm 0 W/m2
05:56 -13.8 °C -15.8 °C 1027 hPa Calm     85% 0 mm 0 W/m2
06:02 -13.8 °C -15.8 °C 1027 hPa Calm   1.6 km/h 85% 0 mm 0 W/m2
06:08 -13.8 °C -15.8 °C 1027 hPa Calm   1.6 km/h 85% 0 mm 0 W/m2
06:16 -13.7 °C -15.7 °C 1027.3 hPa NW 1.6 km/h 3.2 km/h 85% 0 mm 0 W/m2
06:22 -13.7 °C -15.7 °C 1027.3 hPa NW 1.6 km/h 1.6 km/h 85% 0 mm 0 W/m2
06:26 -13.8 °C -15.8 °C 1027 hPa Calm   1.6 km/h 85% 0 mm 0 W/m2
06:28 -13.8 °C -15.8 °C 1027.3 hPa Calm   1.6 km/h 85% 0 mm 0 W/m2
06:42 -13.9 °C -15.9 °C 1027.3 hPa Calm     85% 0 mm 0 W/m2
06:48 -13.9 °C -15.9 °C 1027 hPa Calm     85% 0 mm 0 W/m2
06:54 -14.1 °C -16.1 °C 1027 hPa Calm     85% 0 mm 0 W/m2
07:00 -14.4 °C -16.3 °C 1027 hPa Calm     85% 0 mm 0 W/m2
07:06 -14.7 °C -16.6 °C 1027.3 hPa Calm     85% 0 mm 0 W/m2
07:12 -15 °C -16.9 °C 1027.3 hPa Calm     85% 0 mm 0 W/m2
07:18 -15.3 °C -17.3 °C 1027 hPa Calm     85% 0 mm 0 W/m2
07:30 -16.1 °C -18.1 °C 1027 hPa Calm     84% 0 mm 0 W/m2
07:36 -16.3 °C -18.4 °C 1027 hPa Calm     84% 0 mm 0 W/m2
07:42 -16.5 °C -18.6 °C 1027 hPa Calm     84% 0 mm 0 W/m2
07:48 -16.5 °C -18.4 °C 1027 hPa Calm     85% 0 mm 0 W/m2
07:54 -16.5 °C -18.4 °C 1027 hPa Calm     85% 0 mm 5 W/m2
08:00 -16.2 °C -18.1 °C 1027 hPa Calm     85% 0 mm 7 W/m2
08:06 -16.2 °C -18.1 °C 1027 hPa Calm     85% 0 mm 11 W/m2
08:12 -15.9 °C -17.9 °C 1027 hPa Calm     85% 0 mm 12 W/m2
08:18 -15.5 °C -17.3 °C 1027 hPa Calm     86% 0 mm 12 W/m2
08:24 -15.2 °C -17.1 °C 1027 hPa Calm     86% 0 mm 11 W/m2
08:30 -14.8 °C -16.6 °C 1026.6 hPa Calm     86% 0 mm 14 W/m2
08:38 -14.2 °C -16.1 °C 1026.6 hPa Calm     86% 0 mm 19 W/m2
08:44 -13.8 °C -15.6 °C 1026.6 hPa Calm     87% 0 mm 28 W/m2
08:50 -13.3 °C -15.1 °C 1026.3 hPa Calm     87% 0 mm 32 W/m2
08:56 -12.8 °C -14.6 °C 1026.3 hPa Calm   1.6 km/h 87% 0 mm 28 W/m2
09:02 -12.5 °C -14.2 °C 1026.3 hPa Calm     87% 0 mm 23 W/m2
09:08 -12.3 °C -14.2 °C 1026 hPa Calm   3.2 km/h 86% 0 mm 19 W/m2
09:14 -12.2 °C -14.1 °C 1026 hPa WSW 1.6 km/h 4.8 km/h 86% 0 mm 16 W/m2
09:20 -12.1 °C -13.9 °C 1026 hPa WSW 1.6 km/h 1.6 km/h 86% 0 mm 18 W/m2
09:28 -11.8 °C -13.7 °C 1026 hPa WSW 1.6 km/h 3.2 km/h 86% 0 mm 19 W/m2
09:34 -11.6 °C -13.5 °C 1026 hPa WSW 1.6 km/h 1.6 km/h 86% 0 mm 19 W/m2
09:36 -11.6 °C -13.4 °C 1026 hPa South 1.6 km/h 4.8 km/h 86% 0 mm 21 W/m2
09:48 -11.3 °C -13.2 °C 1025.6 hPa SE 1.6 km/h 4.8 km/h 86% 0 mm 18 W/m2
09:54 -11.1 °C -13 °C 1025.6 hPa Calm   3.2 km/h 86% 0 mm 19 W/m2
10:04 -10.8 °C -12.7 °C 1025.6 hPa SE 1.6 km/h 1.6 km/h 86% 0 mm 40 W/m2
10:10 -10.4 °C -12.3 °C 1025.3 hPa Calm   1.6 km/h 86% 0 mm 44 W/m2
10:16 -10.1 °C -12 °C 1025.3 hPa SE 1.6 km/h 1.6 km/h 86% 0 mm 44 W/m2
10:22 -9.7 °C -11.6 °C 1025.3 hPa Calm   3.2 km/h 86% 0 mm 37 W/m2
10:28 -9.3 °C -11.2 °C 1025.3 hPa Calm   4.8 km/h 86% 0 mm 32 W/m2
10:34 -8.9 °C -10.8 °C 1024.9 hPa WSW 1.6 km/h 4.8 km/h 86% 0 mm 37 W/m2
10:40 -8.3 °C -10.3 °C 1024.6 hPa WSW 3.2 km/h 3.2 km/h 86% 0 mm 44 W/m2
10:46 -7.9 °C -9.9 °C 1024.6 hPa SW 4.8 km/h 6.4 km/h 86% 0 mm 39 W/m2
10:52 -7.7 °C -9.8 °C 1024.6 hPa West 4.8 km/h 4.8 km/h 85% 0 mm 44 W/m2
10:58 -7.6 °C -9.8 °C 1024.6 hPa SW 4.8 km/h 6.4 km/h 84% 0 mm 46 W/m2
11:04 -7.4 °C -9.8 °C 1024.3 hPa West 6.4 km/h 12.9 km/h 83% 0 mm 46 W/m2
11:10 -7.3 °C -9.8 °C 1024.3 hPa WSW 8 km/h 8 km/h 82% 0 mm 46 W/m2
11:16 -7.1 °C -9.7 °C 1024.3 hPa SW 8 km/h 11.3 km/h 82% 0 mm 49 W/m2
11:22 -7 °C -9.7 °C 1024.3 hPa West 8 km/h 12.9 km/h 81% 0 mm 42 W/m2
11:40 -6.7 °C -9.4 °C 1023.9 hPa SW 6.4 km/h 8 km/h 81% 0 mm 51 W/m2
11:46 -6.7 °C -9.6 °C 1023.6 hPa West 8 km/h 14.5 km/h 80% 0 mm 54 W/m2
11:52 -6.4 °C -9.5 °C 1023.6 hPa SW 6.4 km/h 11.3 km/h 79% 0 mm 63 W/m2
11:58 -6.4 °C -9.6 °C 1023.6 hPa SW 8 km/h 11.3 km/h 78% 0 mm 84 W/m2
12:04 -6.3 °C -9.6 °C 1023.6 hPa SW 8 km/h 11.3 km/h 78% 0 mm 74 W/m2
12:10 -6.4 °C -9.8 °C 1023.2 hPa West 8 km/h 11.3 km/h 77% 0 mm 74 W/m2
12:14 -6.4 °C -10 °C 1023.2 hPa WSW 8 km/h 11.3 km/h 76% 0 mm 72 W/m2
12:20 -6.2 °C -9.8 °C 1022.9 hPa West 8 km/h 8 km/h 76% 0 mm 81 W/m2
12:26 -6.3 °C -10.2 °C 1022.6 hPa SW 8 km/h 17.7 km/h 74% 0 mm 58 W/m2
12:32 -6.5 °C -10.1 °C 1022.6 hPa West 9.7 km/h 12.9 km/h 76% 0 mm 79 W/m2
12:38 -6.4 °C -10.2 °C 1022.6 hPa WNW 9.7 km/h 12.9 km/h 75% 0 mm 105 W/m2
12:44 -6.3 °C -10.2 °C 1022.6 hPa WSW 9.7 km/h 9.7 km/h 74% 0 mm 114 W/m2
12:48 -6.1 °C -10.2 °C 1022.6 hPa WNW 8 km/h 14.5 km/h 73% 0 mm 102 W/m2
12:54 -6.1 °C -10.1 °C 1022.2 hPa SW 9.7 km/h 9.7 km/h 73% 0 mm 116 W/m2
13:00 -5.9 °C -10.2 °C 1022.2 hPa West 9.7 km/h 11.3 km/h 72% 0 mm 100 W/m2
13:06 -5.8 °C -10.2 °C 1022.2 hPa WSW 9.7 km/h 11.3 km/h 71% 0 mm 123 W/m2
13:10 -5.8 °C -10.4 °C 1022.2 hPa West 11.3 km/h 11.3 km/h 70% 0 mm 104 W/m2
13:16 -5.9 °C -10.3 °C 1022.2 hPa WSW 12.9 km/h 14.5 km/h 71% 0 mm 183 W/m2
13:28 -5.8 °C -10.4 °C 1022.2 hPa West 9.7 km/h 20.9 km/h 70% 0 mm 79 W/m2
13:34 -5.9 °C -10.7 °C 1022.2 hPa WSW 8 km/h 11.3 km/h 69% 0 mm 88 W/m2
13:36 -5.9 °C -10.7 °C 1022.2 hPa West 8 km/h 11.3 km/h 69% 0 mm 91 W/m2
13:42 -5.9 °C -10.7 °C 1022.2 hPa SW 9.7 km/h 12.9 km/h 69% 0 mm 88 W/m2
13:48 -5.9 °C -10.7 °C 1021.9 hPa SSW 11.3 km/h 12.9 km/h 69% 0 mm 97 W/m2
13:54 -6 °C -10.8 °C 1021.9 hPa SSW 9.7 km/h 9.7 km/h 69% 0 mm 98 W/m2
14:00 -6 °C -10.8 °C 1021.9 hPa NW 11.3 km/h 11.3 km/h 69% 0 mm 116 W/m2
14:06 -6 °C -10.8 °C 1021.9 hPa SW 11.3 km/h 17.7 km/h 69% 0 mm 146 W/m2
14:12 -6.1 °C -10.5 °C 1021.6 hPa NW 12.9 km/h 12.9 km/h 71% 0 mm 130 W/m2
14:18 -6.1 °C -10.7 °C 1021.6 hPa West 12.9 km/h 19.3 km/h 70% 0 mm 188 W/m2
14:24 -5.9 °C -10.7 °C 1021.6 hPa West 11.3 km/h 27.4 km/h 69% 0 mm 125 W/m2
14:36 -5.9 °C -10.5 °C 1021.6 hPa West 11.3 km/h 12.9 km/h 70% 0 mm 209 W/m2
14:44 -5.9 °C -10.5 °C 1021.6 hPa SW 12.9 km/h 12.9 km/h 70% 0 mm 158 W/m2
14:56 -5.7 °C -10.1 °C 1021.6 hPa South 14.5 km/h 30.6 km/h 71% 0 mm 251 W/m2
15:02 -5.7 °C -10.6 °C 1021.9 hPa WSW 14.5 km/h 16.1 km/h 68% 0 mm 116 W/m2
15:14 -5.7 °C -10.9 °C 1021.9 hPa West 14.5 km/h 16.1 km/h 67% 0 mm 120 W/m2
15:20 -5.8 °C -11 °C 1021.9 hPa WSW 12.9 km/h 14.5 km/h 67% 0 mm 81 W/m2
15:24 -5.9 °C -11.1 °C 1021.9 hPa West 11.3 km/h 16.1 km/h 67% 0 mm 113 W/m2
15:30 -5.9 °C -11.1 °C 1021.9 hPa WNW 11.3 km/h 11.3 km/h 67% 0 mm 83 W/m2
15:36 -6 °C -11.2 °C 1022.2 hPa SSW 11.3 km/h 11.3 km/h 67% 0 mm 83 W/m2
15:50 -6.1 °C -11.4 °C 1022.2 hPa SSE 9.7 km/h 14.5 km/h 66% 0 mm 49 W/m2
15:56 -6.2 °C -11.6 °C 1022.2 hPa NW 11.3 km/h 14.5 km/h 66% 0 mm 35 W/m2
16:02 -6.5 °C -11.6 °C 1022.2 hPa West 11.3 km/h 14.5 km/h 67% 0 mm 42 W/m2
16:10 -6.6 °C -11.7 °C 1022.2 hPa WSW 11.3 km/h 11.3 km/h 67% 0 mm 30 W/m2
16:22 -6.8 °C -12.1 °C 1022.2 hPa SW 9.7 km/h 9.7 km/h 66% 0 mm 12 W/m2
16:28 -6.8 °C -11.9 °C 1022.2 hPa West 9.7 km/h 17.7 km/h 67% 0 mm 9 W/m2
16:34 -6.9 °C -12 °C 1022.2 hPa West 11.3 km/h 14.5 km/h 67% 0 mm 7 W/m2
16:40 -6.9 °C -12.1 °C 1022.2 hPa West 12.9 km/h 12.9 km/h 67% 0 mm 5 W/m2
16:46 -7.1 °C -12.2 °C 1022.2 hPa WSW 12.9 km/h 19.3 km/h 67% 0 mm 0 W/m2
16:52 -7.1 °C -12.2 °C 1022.2 hPa West 11.3 km/h 14.5 km/h 67% 0 mm 0 W/m2
16:58 -7.1 °C -12.2 °C 1022.6 hPa WSW 9.7 km/h 14.5 km/h 67% 0 mm 0 W/m2
17:04 -7.2 °C -12.3 °C 1022.6 hPa WSW 9.7 km/h 16.1 km/h 67% 0 mm 0 W/m2
17:06 -7.2 °C -12.3 °C 1022.6 hPa WSW 11.3 km/h 16.1 km/h 67% 0 mm 0 W/m2
17:12 -7.2 °C -12.3 °C 1022.6 hPa West 12.9 km/h 12.9 km/h 67% 0 mm 0 W/m2
17:18 -7.3 °C -12.4 °C 1022.6 hPa West 11.3 km/h 12.9 km/h 67% 0 mm 0 W/m2
17:20 -7.3 °C -12.4 °C 1022.6 hPa West 11.3 km/h 11.3 km/h 67% 0 mm 0 W/m2
17:28 -7.5 °C -12.6 °C 1022.6 hPa WSW 12.9 km/h 17.7 km/h 67% 0 mm 0 W/m2
17:34 -7.6 °C -12.6 °C 1022.6 hPa SW 11.3 km/h 12.9 km/h 67% 0 mm 0 W/m2
17:40 -7.6 °C -12.6 °C 1022.6 hPa West 9.7 km/h 14.5 km/h 67% 0 mm 0 W/m2
17:52 -7.8 °C -13.1 °C 1022.6 hPa WSW 12.9 km/h 20.9 km/h 66% 0 mm 0 W/m2
17:58 -7.9 °C -13.1 °C 1022.6 hPa West 12.9 km/h 20.9 km/h 66% 0 mm 0 W/m2
18:04 -7.8 °C -13.1 °C 1022.9 hPa WNW 9.7 km/h 12.9 km/h 66% 0 mm 0 W/m2
18:10 -7.8 °C -13.4 °C 1022.9 hPa WSW 9.7 km/h 9.7 km/h 64% 0 mm 0 W/m2
18:12 -7.8 °C -13.4 °C 1022.9 hPa West 9.7 km/h 12.9 km/h 64% 0 mm 0 W/m2
18:18 -7.9 °C -13.7 °C 1023.2 hPa West 9.7 km/h 12.9 km/h 63% 0 mm 0 W/m2
18:24 -7.9 °C -13.8 °C 1023.2 hPa WNW 8 km/h 9.7 km/h 63% 0 mm 0 W/m2
18:30 -8.1 °C -13.9 °C 1023.2 hPa West 6.4 km/h 6.4 km/h 63% 0 mm 0 W/m2
18:34 -8.2 °C -14 °C 1023.2 hPa NW 4.8 km/h 6.4 km/h 63% 0 mm 0 W/m2
18:40 -8.2 °C -14 °C 1023.2 hPa West 6.4 km/h 9.7 km/h 63% 0 mm 0 W/m2
18:46 -8.3 °C -14.3 °C 1023.2 hPa West 6.4 km/h 16.1 km/h 62% 0 mm 0 W/m2
18:52 -8.3 °C -14.3 °C 1023.2 hPa WNW 8 km/h 11.3 km/h 62% 0 mm 0 W/m2
18:58 -8.4 °C -14.4 °C 1023.2 hPa WSW 6.4 km/h 11.3 km/h 62% 0 mm 0 W/m2
19:04 -8.3 °C -14.5 °C 1023.2 hPa WNW 6.4 km/h 11.3 km/h 61% 0 mm 0 W/m2
19:12 -8.2 °C -14.4 °C 1023.2 hPa SW 8 km/h 14.5 km/h 61% 0 mm 0 W/m2
19:24 -8.2 °C -14.4 °C 1023.2 hPa SSW 8 km/h 17.7 km/h 61% 0 mm 0 W/m2
19:26 -8.2 °C -14.4 °C 1023.2 hPa WSW 9.7 km/h 17.7 km/h 61% 0 mm 0 W/m2
19:32 -8.3 °C -14.5 °C 1023.2 hPa West 9.7 km/h 9.7 km/h 61% 0 mm 0 W/m2
19:38 -8.3 °C -14.5 °C 1023.2 hPa WNW 8 km/h 9.7 km/h 61% 0 mm 0 W/m2
19:50 -8.3 °C -14.5 °C 1022.9 hPa West 9.7 km/h 14.5 km/h 61% 0 mm 0 W/m2
19:56 -8.3 °C -14.5 °C 1022.6 hPa WSW 9.7 km/h 14.5 km/h 61% 0 mm 0 W/m2
20:08 -8.3 °C -14.3 °C 1022.6 hPa SW 6.4 km/h 9.7 km/h 62% 0 mm 0 W/m2
20:20 -8.4 °C -14.6 °C 1022.6 hPa SW 8 km/h 8 km/h 61% 0 mm 0 W/m2
20:26 -8.4 °C -14.4 °C 1022.6 hPa SW 6.4 km/h 14.5 km/h 62% 0 mm 0 W/m2
20:32 -8.5 °C -14.5 °C 1022.6 hPa SW 8 km/h 17.7 km/h 62% 0 mm 0 W/m2
20:44 -8.6 °C -14.3 °C 1022.2 hPa West 9.7 km/h 9.7 km/h 63% 0 mm 0 W/m2
20:54 -8.5 °C -14.3 °C 1022.2 hPa West 8 km/h 24.1 km/h 63% 0 mm 0 W/m2
21:02 -8.5 °C -14.3 °C 1022.2 hPa SW 8 km/h 17.7 km/h 63% 0 mm 0 W/m2
21:14 -8.6 °C -14.3 °C 1021.9 hPa WSW 9.7 km/h 19.3 km/h 63% 0 mm 0 W/m2
21:24 -8.7 °C -14.3 °C 1021.9 hPa SW 8 km/h 14.5 km/h 64% 0 mm 0 W/m2
21:48 -8.6 °C -14.4 °C 1021.9 hPa SW 9.7 km/h 17.7 km/h 63% 0 mm 0 W/m2
21:54 -8.6 °C -14.2 °C 1021.9 hPa West 9.7 km/h 14.5 km/h 64% 0 mm 0 W/m2
22:00 -8.6 °C -14.2 °C 1021.9 hPa West 8 km/h 9.7 km/h 64% 0 mm 0 W/m2
22:06 -8.4 °C -14.2 °C 1022.2 hPa SW 8 km/h 9.7 km/h 63% 0 mm 0 W/m2
22:16 -8.4 °C -14.2 °C 1022.2 hPa West 8 km/h 9.7 km/h 63% 0 mm 0 W/m2
22:28 -8.4 °C -14 °C 1022.6 hPa WSW 6.4 km/h 14.5 km/h 64% 0 mm 0 W/m2
22:34 -8.3 °C -13.9 °C 1022.6 hPa WSW 8 km/h 8 km/h 64% 0 mm 0 W/m2
22:40 -8.3 °C -13.9 °C 1022.2 hPa WSW 6.4 km/h 9.7 km/h 64% 0 mm 0 W/m2
22:46 -8.3 °C -13.9 °C 1022.6 hPa West 6.4 km/h 9.7 km/h 64% 0 mm 0 W/m2
22:50 -8.3 °C -13.9 °C 1022.6 hPa WSW 6.4 km/h 8 km/h 64% 0 mm 0 W/m2
22:56 -8.2 °C -13.8 °C 1022.6 hPa SSW 8 km/h 11.3 km/h 64% 0 mm 0 W/m2
23:00 -8.2 °C -13.8 °C 1022.6 hPa West 8 km/h 9.7 km/h 64% 0 mm 0 W/m2
23:06 -8.2 °C -13.8 °C 1022.6 hPa WSW 6.4 km/h 9.7 km/h 64% 0 mm 0 W/m2
23:24 -8.1 °C -13.7 °C 1022.6 hPa SW 6.4 km/h 6.4 km/h 64% 0 mm 0 W/m2
23:30 -8.2 °C -13.6 °C 1022.6 hPa SSW 4.8 km/h 4.8 km/h 65% 0 mm 0 W/m2
23:36 -8.2 °C -13.8 °C 1022.6 hPa WSW 6.4 km/h 9.7 km/h 64% 0 mm 0 W/m2
23:42 -8.2 °C -13.8 °C 1022.6 hPa SSE 4.8 km/h 9.7 km/h 64% 0 mm 0 W/m2
23:54 -8.2 °C -13.8 °C 1022.6 hPa SSE 6.4 km/h 11.3 km/h 64% 0 mm 0 W/m2
Country Meadow, Clay, NY, USA
Compliments of Weather Underground - 2 mb